createdAt,value
2017-05-27T00:02:02.679Z,21.65
2017-05-27T00:03:38.494Z,21.65
2017-05-27T00:05:54.217Z,21.51
2017-05-27T00:08:18.329Z,21.5
2017-05-27T00:10:42.428Z,21.23
2017-05-27T00:13:06.517Z,21.44
2017-05-27T00:15:30.611Z,21.5
2017-05-27T00:17:54.691Z,21.41
2017-05-27T00:20:18.795Z,21.3
2017-05-27T00:22:34.456Z,21.17
2017-05-27T00:24:58.525Z,20.92
2017-05-27T00:27:22.583Z,20.68
2017-05-27T00:29:46.673Z,20.75
2017-05-27T00:32:10.721Z,20.63
2017-05-27T00:34:34.756Z,20.74
2017-05-27T00:36:50.387Z,20.71
2017-05-27T00:39:14.447Z,21.01
2017-05-27T00:41:21.616Z,20.9
2017-05-27T00:43:45.619Z,20.95
2017-05-27T00:46:09.682Z,21
2017-05-27T00:48:33.723Z,20.73
2017-05-27T00:50:57.790Z,20.92
2017-05-27T00:53:21.811Z,20.66
2017-05-27T00:55:45.875Z,20.83
2017-05-27T00:58:09.955Z,21.17
2017-05-27T01:00:34.023Z,20.77
2017-05-27T01:02:49.649Z,20.86
2017-05-27T01:05:13.653Z,20.88
2017-05-27T01:07:37.730Z,21.1
2017-05-27T01:10:01.718Z,20.77
2017-05-27T01:12:17.274Z,20.77
2017-05-27T01:14:41.302Z,20.78
2017-05-27T01:16:56.872Z,20.6
2017-05-27T01:19:04.035Z,20.71
2017-05-27T01:21:28.018Z,20.86
2017-05-27T01:23:29.392Z,20.8
2017-05-27T01:25:53.466Z,21.01
2017-05-27T01:28:17.518Z,20.3
2017-05-27T01:30:41.554Z,20.52
2017-05-27T01:33:05.584Z,20.37
2017-05-27T01:35:29.599Z,20.26
2017-05-27T01:37:53.617Z,20.4
2017-05-27T01:40:17.569Z,20.26
2017-05-27T01:42:41.570Z,20.02
2017-05-27T01:44:57.104Z,20.19
2017-05-27T01:47:12.659Z,19.9
2017-05-27T01:49:28.258Z,20
2017-05-27T01:51:52.342Z,20.26
2017-05-27T01:54:16.419Z,20.04
2017-05-27T01:56:40.505Z,20.15
2017-05-27T01:59:04.483Z,19.93
2017-05-27T02:01:28.566Z,19.92
2017-05-27T02:03:52.653Z,20.15
2017-05-27T02:06:08.331Z,20.12
2017-05-27T02:07:44.159Z,20.02
2017-05-27T02:10:08.270Z,20.12
2017-05-27T02:12:23.845Z,20.15
2017-05-27T02:14:47.830Z,20.07
2017-05-27T02:17:11.906Z,20.21
2017-05-27T02:19:35.988Z,19.9
2017-05-27T02:21:51.570Z,20.17
2017-05-27T02:24:15.652Z,20.03
2017-05-27T02:26:39.741Z,20.1
2017-05-27T02:29:03.818Z,20.18
2017-05-27T02:31:27.799Z,19.93
2017-05-27T02:33:51.882Z,19.9
2017-05-27T02:36:07.462Z,20.19
2017-05-27T02:38:31.443Z,20.11
2017-05-27T02:40:55.522Z,20.03
2017-05-27T02:43:19.605Z,20.1
2017-05-27T02:45:43.691Z,20.22
2017-05-27T02:48:07.773Z,19.81
2017-05-27T02:50:23.355Z,20.03
2017-05-27T02:52:47.340Z,19.72
2017-05-27T02:55:11.310Z,19.93
2017-05-27T02:57:26.893Z,20
2017-05-27T02:59:50.983Z,20.04
2017-05-27T03:01:52.445Z,19.81
2017-05-27T03:04:16.454Z,19.62
2017-05-27T03:06:31.960Z,19.81
2017-05-27T03:08:55.967Z,19.75
2017-05-27T03:11:19.946Z,19.62
2017-05-27T03:13:43.929Z,19.52
2017-05-27T03:16:07.907Z,19.23
2017-05-27T03:18:31.826Z,18.91
2017-05-27T03:20:47.367Z,19.12
2017-05-27T03:23:02.949Z,19.17
2017-05-27T03:25:26.928Z,18.97
2017-05-27T03:27:28.259Z,19.08
2017-05-27T03:29:38.088Z,18.98
2017-05-27T03:31:47.944Z,19.07
2017-05-27T03:34:11.858Z,19.12
2017-05-27T03:36:35.787Z,19.15
2017-05-27T03:38:59.809Z,18.92
2017-05-27T03:41:15.389Z,19.07
2017-05-27T03:43:39.371Z,19.22
2017-05-27T03:45:54.954Z,19.2
2017-05-27T03:48:18.930Z,19.19
2017-05-27T03:50:42.919Z,18.98
2017-05-27T03:53:06.892Z,18.92
2017-05-27T03:55:30.874Z,18.81
2017-05-27T03:57:54.852Z,18.71
2017-05-27T04:00:18.836Z,18.61
2017-05-27T04:02:42.817Z,18.82
2017-05-27T04:05:06.793Z,18.97
2017-05-27T04:07:30.773Z,18.94
2017-05-27T04:09:46.353Z,19.17
2017-05-27T04:12:01.935Z,19.24
2017-05-27T04:14:17.520Z,18.76
2017-05-27T04:16:41.497Z,18.88
2017-05-27T04:19:05.474Z,19.2
2017-05-27T04:21:29.457Z,19
2017-05-27T04:23:53.438Z,20.07
2017-05-27T04:26:17.416Z,22.8
2017-05-27T04:28:41.496Z,25.24
2017-05-27T04:30:57.286Z,24.81
2017-05-27T04:33:21.674Z,24.79
2017-05-27T04:35:46.160Z,27.01
2017-05-27T04:38:10.761Z,29
2017-05-27T04:40:35.557Z,30.85
2017-05-27T04:43:00.460Z,31.48
2017-05-27T04:45:25.570Z,31.97
2017-05-27T04:47:50.775Z,29.02
2017-05-27T04:50:16.081Z,32.22
2017-05-27T04:52:41.496Z,31.67
2017-05-27T04:55:07.020Z,33.35
2017-05-27T04:57:17.406Z,36.62
2017-05-27T04:59:43.097Z,36.92
2017-05-27T05:02:08.921Z,35.3
2017-05-27T05:04:10.737Z,33.82
2017-05-27T05:06:28.101Z,35.2
2017-05-27T05:08:54.137Z,36.35
2017-05-27T05:11:20.157Z,39.95
2017-05-27T05:13:46.289Z,36.38
2017-05-27T05:16:12.420Z,40.52
2017-05-27T05:18:38.648Z,42.29
2017-05-27T05:21:04.982Z,42.46
2017-05-27T05:23:31.422Z,39.82
2017-05-27T05:25:57.858Z,42.51
2017-05-27T05:28:24.397Z,44.52
2017-05-27T05:30:50.946Z,48.13
2017-05-27T05:33:17.687Z,44.67
2017-05-27T05:35:35.931Z,47.6
2017-05-27T05:38:02.775Z,46.97
2017-05-27T05:40:29.623Z,49.24
2017-05-27T05:42:47.968Z,50.48
2017-05-27T05:45:15.020Z,50.55
2017-05-27T05:47:42.073Z,50.12
2017-05-27T05:50:09.222Z,51.28
2017-05-27T05:52:36.379Z,49.83
2017-05-27T05:55:03.534Z,46.85
2017-05-27T05:57:30.790Z,47.7
2017-05-27T05:59:58.052Z,48.04
2017-05-27T06:02:25.304Z,47.72
2017-05-27T06:04:35.358Z,46.88
2017-05-27T06:07:02.608Z,52.95
2017-05-27T06:09:29.975Z,54.32
2017-05-27T06:11:48.831Z,56.62
2017-05-27T06:14:16.294Z,55.51
2017-05-27T06:16:35.256Z,52.52
2017-05-27T06:18:54.318Z,56.73
2017-05-27T06:20:47.932Z,53.58
2017-05-27T06:22:50.175Z,53.85
2017-05-27T06:25:17.925Z,53.6
2017-05-27T06:27:45.690Z,51.91
2017-05-27T06:30:13.361Z,52.04
2017-05-27T06:32:41.130Z,55.04
2017-05-27T06:35:08.895Z,58.4
2017-05-27T06:37:28.061Z,54.16
2017-05-27T06:39:47.231Z,46.56
2017-05-27T06:42:15.202Z,44.77
2017-05-27T06:44:43.174Z,43.31
2017-05-27T06:47:02.446Z,42.82
2017-05-27T06:49:30.314Z,43.89
2017-05-27T06:51:57.978Z,39.94
2017-05-27T06:54:25.548Z,39.26
2017-05-27T06:56:53.822Z,38.32
2017-05-27T06:59:20.871Z,39.51
2017-05-27T07:01:22.919Z,38.96
2017-05-27T07:03:49.688Z,37.19
2017-05-27T07:06:16.225Z,35.88
2017-05-27T07:08:42.566Z,34.56
2017-05-27T07:11:08.796Z,35.61
2017-05-27T07:13:34.923Z,34.19
2017-05-27T07:16:00.952Z,35.32
2017-05-27T07:18:26.884Z,36.2
2017-05-27T07:20:44.218Z,34.35
2017-05-27T07:23:10.024Z,35.96
2017-05-27T07:25:20.434Z,32.86
2017-05-27T07:27:37.602Z,32.93
2017-05-27T07:30:03.228Z,32.22
2017-05-27T07:32:28.837Z,34.51
2017-05-27T07:34:39.329Z,35.68
2017-05-27T07:37:04.922Z,36.28
2017-05-27T07:39:21.859Z,36.54
2017-05-27T07:41:47.448Z,36.45
2017-05-27T07:44:13.069Z,33.61
2017-05-27T07:46:14.839Z,35.12
2017-05-27T07:48:40.551Z,37.15
2017-05-27T07:51:06.284Z,37.67
2017-05-27T07:53:32.097Z,35.93
2017-05-27T07:55:57.909Z,36.62
2017-05-27T07:58:23.740Z,37.73
2017-05-27T08:00:49.557Z,37.86
2017-05-27T08:03:15.386Z,37.63
2017-05-27T08:05:41.205Z,37.09
2017-05-27T08:07:58.528Z,36.22
2017-05-27T08:10:24.280Z,36.94
2017-05-27T08:12:41.512Z,37.4
2017-05-27T08:14:58.795Z,38.09
2017-05-27T08:17:24.719Z,38.23
2017-05-27T08:19:50.648Z,37.15
2017-05-27T08:22:16.583Z,40.17
2017-05-27T08:24:42.495Z,38.09
2017-05-27T08:27:08.422Z,38.22
2017-05-27T08:29:34.348Z,39.04
2017-05-27T08:32:00.278Z,38.47
2017-05-27T08:34:26.217Z,39.1
2017-05-27T08:36:52.018Z,38.47
2017-05-27T08:39:09.349Z,36.66
2017-05-27T08:41:26.667Z,37.01
2017-05-27T08:43:28.479Z,38.58
2017-05-27T08:45:38.906Z,38.25
2017-05-27T08:48:04.809Z,36.45
2017-05-27T08:50:30.635Z,36.76
2017-05-27T08:52:56.459Z,35.94
2017-05-27T08:55:22.296Z,36.84
2017-05-27T08:57:48.007Z,36.35
2017-05-27T09:00:13.723Z,37.67
2017-05-27T09:02:39.448Z,37.9
2017-05-27T09:05:05.164Z,37.31
2017-05-27T09:07:30.883Z,36.8
2017-05-27T09:09:56.605Z,36.7
2017-05-27T09:12:13.826Z,36.5
2017-05-27T09:14:39.545Z,35.26
2017-05-27T09:17:05.267Z,35.44
2017-05-27T09:19:30.982Z,35.74
2017-05-27T09:21:56.702Z,36.43
2017-05-27T09:24:22.330Z,36.66
2017-05-27T09:26:48.042Z,36.03
2017-05-27T09:29:05.163Z,37.79
2017-05-27T09:31:30.886Z,38.34
2017-05-27T09:33:56.608Z,38.17
2017-05-27T09:36:22.335Z,37.91
2017-05-27T09:38:48.051Z,37.44
2017-05-27T09:41:05.267Z,38.44
2017-05-27T09:43:30.928Z,38.58
2017-05-27T09:45:56.708Z,37.85
2017-05-27T09:48:22.429Z,38.35
2017-05-27T09:50:48.139Z,36.97
2017-05-27T09:53:13.867Z,38.65
2017-05-27T09:55:39.591Z,37.9
2017-05-27T09:58:05.307Z,36.47
2017-05-27T10:00:31.029Z,36.01
2017-05-27T10:02:56.752Z,36.39
2017-05-27T10:05:22.375Z,35.56
2017-05-27T10:07:47.987Z,36.09
2017-05-27T10:10:13.605Z,35.74
2017-05-27T10:12:39.218Z,35.44
2017-05-27T10:14:49.615Z,34.18
2017-05-27T10:17:15.200Z,34.28
2017-05-27T10:19:32.216Z,34.11
2017-05-27T10:21:33.954Z,33.85
2017-05-27T10:23:50.992Z,34.53
2017-05-27T10:26:16.400Z,34.03
2017-05-27T10:28:41.818Z,33.35
2017-05-27T10:30:58.729Z,34.28
2017-05-27T10:33:24.145Z,34.26
2017-05-27T10:35:49.560Z,34.59
2017-05-27T10:38:14.863Z,34.33
2017-05-27T10:40:41.307Z,34.29
2017-05-27T10:43:06.724Z,33.16
2017-05-27T10:45:32.030Z,33.47
2017-05-27T10:47:59.095Z,33.36
2017-05-27T10:50:23.575Z,33.6
2017-05-27T10:52:40.465Z,33.87
2017-05-27T10:55:05.696Z,33.35
2017-05-27T10:57:31.001Z,33.05
2017-05-27T10:59:56.324Z,33.75
2017-05-27T11:02:21.626Z,33.82
2017-05-27T11:04:46.937Z,32.46
2017-05-27T11:07:12.250Z,32.86
2017-05-27T11:09:28.957Z,33.01
2017-05-27T11:11:45.670Z,32.66
2017-05-27T11:14:10.878Z,32.83
2017-05-27T11:16:36.083Z,32.44
2017-05-27T11:19:01.292Z,32.56
2017-05-27T11:21:26.499Z,32.79
2017-05-27T11:23:37.529Z,32.97
2017-05-27T11:26:02.785Z,32.9
2017-05-27T11:28:12.987Z,33.23
2017-05-27T11:30:29.752Z,32.83
2017-05-27T11:32:54.987Z,33.4
2017-05-27T11:35:20.168Z,32.93
2017-05-27T11:37:45.374Z,33.09
2017-05-27T11:40:02.085Z,32.6
2017-05-27T11:42:27.290Z,32.37
2017-05-27T11:44:44.002Z,32.83
2017-05-27T11:47:09.211Z,32.63
2017-05-27T11:49:25.852Z,33.13
2017-05-27T11:51:51.029Z,32.82
2017-05-27T11:54:16.234Z,32.51
2017-05-27T11:56:41.439Z,32.72
2017-05-27T11:59:06.645Z,33.2
2017-05-27T12:01:31.779Z,32.78
2017-05-27T12:03:56.974Z,32.78
2017-05-27T12:06:22.168Z,32.67
2017-05-27T12:08:47.379Z,32.42
2017-05-27T12:11:12.597Z,32.53
2017-05-27T12:13:37.800Z,32.93
2017-05-27T12:16:02.903Z,32.17
2017-05-27T12:18:28.115Z,33.23
2017-05-27T12:20:53.344Z,33.08
2017-05-27T12:23:18.585Z,33.4
2017-05-27T12:25:43.754Z,32.6
2017-05-27T12:27:19.618Z,33.01
2017-05-27T12:29:21.273Z,33.72
2017-05-27T12:31:47.167Z,33.44
2017-05-27T12:34:12.472Z,33.31
2017-05-27T12:36:29.186Z,33.04
2017-05-27T12:38:54.390Z,32.73
2017-05-27T12:41:19.594Z,32.56
2017-05-27T12:43:36.311Z,32.59
2017-05-27T12:46:01.509Z,33.4
2017-05-27T12:47:54.682Z,33.45
2017-05-27T12:50:04.895Z,32.82
2017-05-27T12:52:30.046Z,32.82
2017-05-27T12:54:55.259Z,33.38
2017-05-27T12:57:20.458Z,33.7
2017-05-27T12:59:45.668Z,32.38
2017-05-27T13:02:10.875Z,33.08
2017-05-27T13:03:47.481Z,33.29
2017-05-27T13:05:32.635Z,33.5
2017-05-27T13:07:57.814Z,33.44
2017-05-27T13:10:23.035Z,33.17
2017-05-27T13:12:48.241Z,33.05
2017-05-27T13:15:13.442Z,32.79
2017-05-27T13:17:38.648Z,33.19
2017-05-27T13:19:55.360Z,32.9
2017-05-27T13:22:20.567Z,33.03
2017-05-27T13:24:45.774Z,32.57
2017-05-27T13:27:10.989Z,32.38
2017-05-27T13:29:36.193Z,32.82
2017-05-27T13:32:01.303Z,33.31
2017-05-27T13:34:26.494Z,32.61
2017-05-27T13:36:43.215Z,32.79
2017-05-27T13:39:08.427Z,33.16
2017-05-27T13:41:18.667Z,33.35
2017-05-27T13:43:43.890Z,32.78
2017-05-27T13:46:00.599Z,33.26
2017-05-27T13:48:25.806Z,33.23
2017-05-27T13:50:51.016Z,33.23
2017-05-27T13:52:52.664Z,33.35
2017-05-27T13:55:17.880Z,33.38
2017-05-27T13:57:19.525Z,33.5
2017-05-27T13:59:36.246Z,33.53
2017-05-27T14:01:47.261Z,33.61
2017-05-27T14:04:12.536Z,33.13
2017-05-27T14:06:37.742Z,33.44
2017-05-27T14:09:02.956Z,33.76
2017-05-27T14:11:28.156Z,34.31
2017-05-27T14:13:53.363Z,34.59
2017-05-27T14:16:18.575Z,34.41
2017-05-27T14:18:43.783Z,33.61
2017-05-27T14:21:08.991Z,33.42
2017-05-27T14:23:34.199Z,33.39
2017-05-27T14:25:59.512Z,33.89
2017-05-27T14:28:24.721Z,33.69
2017-05-27T14:30:41.428Z,34.02
2017-05-27T14:33:06.743Z,33.04
2017-05-27T14:35:32.974Z,33.2
2017-05-27T14:37:34.626Z,33.12
2017-05-27T14:39:59.936Z,33.36
2017-05-27T14:42:25.166Z,32.95
2017-05-27T14:44:51.389Z,33.08
2017-05-27T14:47:16.591Z,33.48
2017-05-27T14:49:18.799Z,33.17
2017-05-27T14:51:44.067Z,33.2
2017-05-27T14:54:09.279Z,33.32
2017-05-27T14:56:34.505Z,33.4
2017-05-27T14:58:51.196Z,33.48
2017-05-27T15:01:16.513Z,33.54
2017-05-27T15:03:41.704Z,33.44
2017-05-27T15:06:06.922Z,33.05
2017-05-27T15:08:32.131Z,33
2017-05-27T15:10:57.351Z,33.09
2017-05-27T15:13:22.553Z,33.2
2017-05-27T15:15:47.762Z,33.28
2017-05-27T15:18:12.864Z,33.19
2017-05-27T15:20:29.580Z,32.75
2017-05-27T15:22:54.801Z,32.94
2017-05-27T15:25:20.925Z,33.04
2017-05-27T15:27:24.102Z,33.32
2017-05-27T15:29:49.413Z,33.16
2017-05-27T15:32:14.619Z,33
2017-05-27T15:34:39.729Z,33.16
2017-05-27T15:37:04.931Z,33.08
2017-05-27T15:39:30.145Z,33.36
2017-05-27T15:41:55.357Z,33.38
2017-05-27T15:44:20.566Z,32.76
2017-05-27T15:46:45.774Z,33.04
2017-05-27T15:49:02.380Z,33.09
2017-05-27T15:51:27.586Z,33.16
2017-05-27T15:53:44.295Z,32.82
2017-05-27T15:56:09.399Z,32.81
2017-05-27T15:58:26.014Z,33.01
2017-05-27T16:00:51.210Z,33.13
2017-05-27T16:03:16.426Z,33.05
2017-05-27T16:05:42.147Z,33
2017-05-27T16:08:07.354Z,33.4
2017-05-27T16:10:23.948Z,33.15
2017-05-27T16:12:40.673Z,33.16
2017-05-27T16:15:05.875Z,32.63
2017-05-27T16:17:31.089Z,32.85
2017-05-27T16:19:56.300Z,32.81
2017-05-27T16:22:21.513Z,32.91
2017-05-27T16:24:38.212Z,32.72
2017-05-27T16:27:03.423Z,32.67
2017-05-27T16:29:28.627Z,32.83
2017-05-27T16:31:45.339Z,32.76
2017-05-27T16:34:02.071Z,32.83
2017-05-27T16:36:27.155Z,32.94
2017-05-27T16:38:52.362Z,32.72
2017-05-27T16:41:17.571Z,32.75
2017-05-27T16:43:42.780Z,32.94
2017-05-27T16:46:07.990Z,33
2017-05-27T16:48:33.098Z,32.83
2017-05-27T16:50:58.307Z,32.79
2017-05-27T16:53:26.013Z,32.95
2017-05-27T16:55:51.076Z,33
2017-05-27T16:58:16.183Z,32.9
2017-05-27T17:00:41.391Z,32.91
2017-05-27T17:02:58.096Z,32.9
2017-05-27T17:05:14.809Z,32.67
2017-05-27T17:07:31.515Z,32.83
2017-05-27T17:09:56.623Z,32.86
2017-05-27T17:12:21.832Z,32.6
2017-05-27T17:14:38.444Z,32.2
2017-05-27T17:17:03.545Z,32.49
2017-05-27T17:19:28.670Z,32.39
2017-05-27T17:21:53.757Z,32.27
2017-05-27T17:24:18.865Z,32.38
2017-05-27T17:26:43.962Z,32.31
2017-05-27T17:29:09.076Z,32.17
2017-05-27T17:31:34.181Z,32.19
2017-05-27T17:33:59.287Z,32.26
2017-05-27T17:36:24.393Z,32.02
2017-05-27T17:38:49.504Z,32.05
2017-05-27T17:41:14.607Z,32
2017-05-27T17:43:31.270Z,32.29
2017-05-27T17:45:56.213Z,32.24
2017-05-27T17:48:21.224Z,32.51
2017-05-27T17:50:46.325Z,32.17
2017-05-27T17:53:11.339Z,32.26
2017-05-27T17:55:13.440Z,31.98
2017-05-27T17:57:38.502Z,32.22
2017-05-27T18:00:03.501Z,31.95
2017-05-27T18:02:20.112Z,31.66
2017-05-27T18:04:45.110Z,31.69
2017-05-27T18:07:10.118Z,31.67
2017-05-27T18:09:11.782Z,31.54
2017-05-27T18:11:36.877Z,31.55
2017-05-27T18:14:01.880Z,31.55
2017-05-27T18:16:18.385Z,31.2
2017-05-27T18:18:43.384Z,31.26
2017-05-27T18:21:08.400Z,31.15
2017-05-27T18:23:33.498Z,30.93
2017-05-27T18:25:58.509Z,31.05
2017-05-27T18:28:23.501Z,30.86
2017-05-27T18:30:48.517Z,30.85
2017-05-27T18:33:13.412Z,30.96
2017-05-27T18:35:29.906Z,30.81
2017-05-27T18:37:54.918Z,30.81
2017-05-27T18:40:19.924Z,31.02
2017-05-27T18:42:44.931Z,30.99
2017-05-27T18:45:09.830Z,30.77
2017-05-27T18:47:34.839Z,31.02
2017-05-27T18:49:59.830Z,30.99
2017-05-27T18:52:24.839Z,30.93
2017-05-27T18:54:49.739Z,30.85
2017-05-27T18:56:57.645Z,30.81
2017-05-27T18:59:14.044Z,30.56
2017-05-27T19:01:38.946Z,30.46
2017-05-27T19:04:03.847Z,30.51
2017-05-27T19:06:28.748Z,30.49
2017-05-27T19:08:53.650Z,30.32
2017-05-27T19:11:18.551Z,30.49
2017-05-27T19:13:34.965Z,30.39
2017-05-27T19:15:59.856Z,30.23
2017-05-27T19:18:24.754Z,30.08
2017-05-27T19:20:26.330Z,30.08
2017-05-27T19:22:51.317Z,30.02
2017-05-27T19:25:16.215Z,29.94
2017-05-27T19:27:41.118Z,29.87
2017-05-27T19:29:57.521Z,29.71
2017-05-27T19:32:22.319Z,29.1
2017-05-27T19:34:47.114Z,29.03
2017-05-27T19:37:11.916Z,28.83
2017-05-27T19:39:36.713Z,28.62
2017-05-27T19:41:38.390Z,28.71
2017-05-27T19:43:39.941Z,28.64
2017-05-27T19:46:04.822Z,28.6
2017-05-27T19:48:29.627Z,28.62
2017-05-27T19:56:16.580Z,28.3
2017-05-27T19:58:41.180Z,28.22
2017-05-27T20:00:16.997Z,28.25
2017-05-27T20:02:41.722Z,28.3
2017-05-27T20:04:57.932Z,28.3
2017-05-27T20:06:59.672Z,28.46
2017-05-27T20:09:24.478Z,28.56
2017-05-27T20:11:40.682Z,28.52
2017-05-27T20:13:56.972Z,28.65
2017-05-27T20:16:21.770Z,28.52
2017-05-27T20:18:46.469Z,28.45
2017-05-27T20:21:11.280Z,28.53
2017-05-27T20:23:12.800Z,28.46
2017-05-27T20:25:37.618Z,28.41
2017-05-27T20:27:39.151Z,28.22
2017-05-27T20:29:55.477Z,28.06
2017-05-27T20:32:20.168Z,27.86
2017-05-27T20:34:44.867Z,28.01
2017-05-27T20:37:09.565Z,27.82
2017-05-27T20:39:25.760Z,27.67
2017-05-27T20:41:50.661Z,27.57
2017-05-27T20:44:15.357Z,27.5
2017-05-27T20:46:31.557Z,27.37
2017-05-27T20:48:33.156Z,27.33
2017-05-27T20:50:59.744Z,27.44
2017-05-27T20:53:16.049Z,27.22
2017-05-27T20:55:40.744Z,27.28
2017-05-27T20:57:56.944Z,27.34
2017-05-27T21:00:22.665Z,27.18
2017-05-27T21:02:47.360Z,26.89
2017-05-27T21:05:12.060Z,26.93
2017-05-27T21:07:36.650Z,27.08
2017-05-27T21:09:38.168Z,27.29
2017-05-27T21:11:39.638Z,27.18
2017-05-27T21:14:04.353Z,27.23
2017-05-27T21:16:20.570Z,27.23
2017-05-27T21:18:45.142Z,26.96
2017-05-27T21:21:01.238Z,27
2017-05-27T21:23:25.831Z,26.83
2017-05-27T21:25:50.735Z,26.74
2017-05-27T21:28:15.327Z,26.56
2017-05-27T21:30:17.333Z,26.51
2017-05-27T21:32:41.985Z,26.49
2017-05-27T21:35:06.580Z,26.52
2017-05-27T21:37:31.172Z,26.45
2017-05-27T21:39:47.266Z,26.19
2017-05-27T21:42:11.862Z,26.23
2017-05-27T21:44:36.345Z,25.96
2017-05-27T21:46:52.447Z,26.07
2017-05-27T21:49:08.559Z,25.96
2017-05-27T21:50:44.420Z,26.06
2017-05-27T21:53:08.988Z,25.85
2017-05-27T21:55:33.578Z,25.63
2017-05-27T21:57:58.073Z,25.8
2017-05-27T22:00:22.563Z,25.7
2017-05-27T22:02:38.658Z,25.83
2017-05-27T22:05:03.255Z,25.71
2017-05-27T22:07:27.744Z,25.66
2017-05-27T22:09:52.236Z,25.7
2017-05-27T22:12:16.729Z,25.8
2017-05-27T22:14:18.205Z,25.71
2017-05-27T22:16:42.775Z,25.71
2017-05-27T22:19:07.265Z,25.85
2017-05-27T22:21:31.762Z,25.73
2017-05-27T22:23:56.247Z,25.73
2017-05-27T22:26:20.740Z,25.63
2017-05-27T22:28:45.230Z,25.43
2017-05-27T22:31:09.724Z,25.41
2017-05-27T22:33:34.216Z,25.18
2017-05-27T22:35:58.703Z,25.39
2017-05-27T22:38:23.207Z,25.22
2017-05-27T22:40:39.189Z,25
2017-05-27T22:43:03.681Z,24.99
2017-05-27T22:45:13.695Z,25.06
2017-05-27T22:47:38.226Z,24.97
2017-05-27T22:50:02.715Z,24.88
2017-05-27T22:52:18.717Z,25
2017-05-27T22:54:43.102Z,24.97
2017-05-27T22:57:07.590Z,25.22
2017-05-27T22:59:23.583Z,25.22
2017-05-27T23:01:47.973Z,25.25
2017-05-27T23:04:12.358Z,25.25
2017-05-27T23:06:13.798Z,25.07
2017-05-27T23:08:38.310Z,25.19
2017-05-27T23:11:02.795Z,25.31
2017-05-27T23:13:10.290Z,25.22
2017-05-27T23:15:11.866Z,25.14
2017-05-27T23:17:36.333Z,24.99
2017-05-27T23:20:00.724Z,24.77
2017-05-27T23:22:25.212Z,24.89
2017-05-27T23:24:49.605Z,24.96
2017-05-27T23:27:13.991Z,24.86
2017-05-27T23:29:38.379Z,25
2017-05-27T23:31:48.463Z,25.01
2017-05-27T23:34:12.929Z,25.06
2017-05-27T23:36:37.314Z,25.15
2017-05-27T23:38:53.307Z,25.07
2017-05-27T23:41:09.301Z,24.96
2017-05-27T23:43:33.791Z,24.81
2017-05-27T23:45:41.284Z,24.62
2017-05-27T23:48:05.669Z,24.59
2017-05-27T23:50:30.060Z,24.68
2017-05-27T23:52:31.538Z,24.59
2017-05-27T23:54:32.985Z,24.62
2017-05-27T23:56:57.454Z,24.69
2017-05-27T23:59:13.347Z,24.65
